Cromwell, Kentucky
Current Conditions -  °F | °C
As of 12:53 PM on Sunday 23 Nov 2014 (Local Time) from KBWG Reporting Station
Light Rain Light Rain  
Wind Chill: 57°   Ceiling: 1500
Heat Index: 57°   Visibility: 6mi
Dew Point: 54°   Wind: 12mph
Humidity: 89%   Direction: 130°SE
Pressure: 29.63"   Gusts: NA
Location:  37.34°N, 86.79°W
Report Text: KBWG 231853Z AUTO 13010KT 6SM -RA BR BKN015 OVC024 14/12 A2963 RMK AO2 PRESFR SLP031 P0003 T01390122
Loading
Personal Weather Stations






























Interactive Weather Map New forecast layout! Learn more

10-Day Weather Forecast

Advertisements
Track Severe Weather on mobile